Pitangueiras, Brazil
Current Conditions -  °F | °C
As of 5:00 AM on Tuesday 21 Oct 2014 (Local Time) from SBRP Reporting Station
Clear Clear  
Wind Chill: 70°   Ceiling: Unl
Heat Index: 70°   Visibility: 6mi
Dew Point: 61°   Wind: 9mph
Humidity: 73%   Direction: 140°SE
Pressure: 29.97"   Gusts: NA
Location:  21.01°S, 48.22°W
Report Text: SBRP 210700Z 14008KT CAVOK 21/16 Q1015
Loading
Personal Weather Stations






























Interactive Weather Map
Tropical Storm Tracking
New forecast layout! Learn more

10-Day Weather Forecast

Advertisements
Track Severe Weather on mobile